createdAt,value
2019-02-20T00:01:24.084Z,10.67
2019-02-20T00:03:54.245Z,14.27
2019-02-20T00:06:24.455Z,14.57
2019-02-20T00:08:54.701Z,13.15
2019-02-20T00:11:24.938Z,15.93
2019-02-20T00:13:55.424Z,14.83
2019-02-20T00:16:25.800Z,11.53
2019-02-20T00:18:57.085Z,12.17
2019-02-20T00:21:27.482Z,12.57
2019-02-20T00:23:57.841Z,13.57
2019-02-20T00:26:28.637Z,9.63
2019-02-20T00:28:59.115Z,10.07
2019-02-20T00:31:29.610Z,11.00
2019-02-20T00:33:59.866Z,13.43
2019-02-20T00:36:30.090Z,14.73
2019-02-20T00:39:00.637Z,14.47
2019-02-20T00:41:30.812Z,10.77
2019-02-20T00:44:13.381Z,9.87
2019-02-20T00:46:51.336Z,10.00
2019-02-20T00:49:30.078Z,10.03
2019-02-20T00:52:12.552Z,8.50
2019-02-20T00:54:42.769Z,11.50
2019-02-20T00:57:12.936Z,15.43
2019-02-20T00:59:43.723Z,11.87
2019-02-20T01:02:14.647Z,10.57
2019-02-20T01:04:48.742Z,12.80
2019-02-20T01:07:19.238Z,12.40
2019-02-20T01:09:49.426Z,14.07
2019-02-20T01:12:21.000Z,9.73
2019-02-20T01:14:51.528Z,13.10
2019-02-20T01:17:21.762Z,10.23
2019-02-20T01:19:51.956Z,10.17
2019-02-20T01:22:22.200Z,9.07
2019-02-20T01:24:52.854Z,11.97
2019-02-20T01:27:24.040Z,9.07
2019-02-20T01:29:54.364Z,9.70
2019-02-20T01:32:24.633Z,14.00
2019-02-20T01:34:54.926Z,12.40
2019-02-20T01:37:25.702Z,12.50
2019-02-20T01:39:55.959Z,9.63
2019-02-20T01:42:26.136Z,11.90
2019-02-20T01:44:56.695Z,11.40
2019-02-20T01:47:27.460Z,9.00
2019-02-20T01:49:57.682Z,9.73
2019-02-20T01:52:28.249Z,10.20
2019-02-20T01:54:58.858Z,11.47
2019-02-20T01:57:29.099Z,12.27
2019-02-20T01:59:59.805Z,8.97
2019-02-20T02:02:30.328Z,12.67
2019-02-20T02:05:00.854Z,9.67
2019-02-20T02:07:31.357Z,12.13
2019-02-20T02:10:01.795Z,9.33
2019-02-20T02:12:32.221Z,11.70
2019-02-20T02:15:02.468Z,9.03
2019-02-20T02:17:33.486Z,11.93
2019-02-20T02:20:04.190Z,11.57
2019-02-20T02:22:34.368Z,10.53
2019-02-20T02:25:04.849Z,11.77
2019-02-20T02:27:35.037Z,10.23
2019-02-20T02:30:05.942Z,9.50
2019-02-20T02:32:36.197Z,11.97
2019-02-20T02:35:07.392Z,12.33
2019-02-20T02:37:37.744Z,12.87
2019-02-20T02:40:09.044Z,10.97
2019-02-20T02:42:39.421Z,11.03
2019-02-20T02:45:10.003Z,12.67
2019-02-20T02:47:40.589Z,11.47
2019-02-20T02:50:10.847Z,14.03
2019-02-20T02:52:41.058Z,10.17
2019-02-20T02:55:11.318Z,12.47
2019-02-20T02:57:41.449Z,13.40
2019-02-20T03:00:11.833Z,10.43
2019-02-20T03:02:42.675Z,9.20
2019-02-20T03:05:13.652Z,11.37
2019-02-20T03:07:44.059Z,13.17
2019-02-20T03:10:14.916Z,11.70
2019-02-20T03:12:45.570Z,11.80
2019-02-20T03:15:15.861Z,12.50
2019-02-20T03:17:46.376Z,14.43
2019-02-20T03:20:16.831Z,13.60
2019-02-20T03:22:47.034Z,12.63
2019-02-20T03:25:17.272Z,11.80
2019-02-20T03:27:47.635Z,13.20
2019-02-20T03:30:17.901Z,11.17
2019-02-20T03:32:48.201Z,13.17
2019-02-20T03:35:18.748Z,14.77
2019-02-20T03:37:49.014Z,15.90
2019-02-20T03:40:19.290Z,11.47
2019-02-20T03:42:49.522Z,12.83
2019-02-20T03:45:19.925Z,16.20
2019-02-20T03:47:50.303Z,12.83
2019-02-20T03:50:21.235Z,14.73
2019-02-20T03:52:51.460Z,12.37
2019-02-20T03:55:21.825Z,10.67
2019-02-20T03:57:52.212Z,10.93
2019-02-20T04:00:22.454Z,12.30
2019-02-20T04:02:52.663Z,10.50
2019-02-20T04:05:23.214Z,12.50
2019-02-20T04:07:53.815Z,13.50
2019-02-20T04:10:24.403Z,13.57
2019-02-20T04:12:54.931Z,14.50
2019-02-20T04:15:25.127Z,11.77
2019-02-20T04:17:55.881Z,11.70
2019-02-20T04:20:26.423Z,13.97
2019-02-20T04:22:57.228Z,11.87
2019-02-20T04:25:27.696Z,15.30
2019-02-20T04:27:57.920Z,10.83
2019-02-20T04:30:28.063Z,12.97
2019-02-20T04:32:58.536Z,13.93
2019-02-20T04:35:28.900Z,10.67
2019-02-20T04:37:59.121Z,12.50
2019-02-20T04:40:29.270Z,12.67
2019-02-20T04:42:59.490Z,12.40
2019-02-20T04:45:30.355Z,17.57
2019-02-20T04:48:00.576Z,14.37
2019-02-20T04:50:30.819Z,18.47
2019-02-20T04:53:01.678Z,19.33
2019-02-20T04:55:32.245Z,17.30
2019-02-20T04:58:19.876Z,12.63
2019-02-20T05:00:50.414Z,16.33
2019-02-20T05:03:23.128Z,16.70
2019-02-20T05:05:52.818Z,16.10
2019-02-20T05:08:23.016Z,17.33
2019-02-20T05:10:53.571Z,20.03
2019-02-20T05:13:23.857Z,18.97
2019-02-20T05:15:54.149Z,19.33
2019-02-20T05:18:24.824Z,20.03
2019-02-20T05:20:55.067Z,19.67
2019-02-20T05:23:25.257Z,21.53
2019-02-20T05:25:56.156Z,19.10
2019-02-20T05:28:26.639Z,18.20
2019-02-20T05:30:57.222Z,19.53
2019-02-20T05:33:27.692Z,21.77
2019-02-20T05:35:58.308Z,21.67
2019-02-20T05:38:28.508Z,20.17
2019-02-20T05:40:59.121Z,21.67
2019-02-20T05:43:29.631Z,20.93
2019-02-20T05:45:59.846Z,22.17
2019-02-20T05:48:31.080Z,19.10
2019-02-20T05:51:01.324Z,20.27
2019-02-20T05:53:31.798Z,24.07
2019-02-20T05:56:02.347Z,18.77
2019-02-20T05:58:32.616Z,19.37
2019-02-20T06:01:02.867Z,20.93
2019-02-20T06:03:33.115Z,22.90
2019-02-20T06:06:03.363Z,20.20
2019-02-20T06:08:33.603Z,25.33
2019-02-20T06:11:14.447Z,24.77
2019-02-20T06:13:35.977Z,20.97
2019-02-20T06:16:06.518Z,25.23
2019-02-20T06:18:37.550Z,19.80
2019-02-20T06:21:08.245Z,24.70
2019-02-20T06:23:38.770Z,25.43
2019-02-20T06:26:09.351Z,23.73
2019-02-20T06:28:40.344Z,22.70
2019-02-20T06:31:11.002Z,24.67
2019-02-20T06:33:41.202Z,20.87
2019-02-20T06:36:11.559Z,25.03
2019-02-20T06:38:41.885Z,22.80
2019-02-20T06:41:12.343Z,25.67
2019-02-20T06:43:42.757Z,21.63
2019-02-20T06:46:13.237Z,28.80
2019-02-20T06:48:43.793Z,23.07
2019-02-20T06:51:14.165Z,24.37
2019-02-20T06:53:44.585Z,21.83
2019-02-20T06:56:15.043Z,23.93
2019-02-20T06:58:45.772Z,21.90
2019-02-20T07:01:18.349Z,26.80
2019-02-20T07:03:48.767Z,31.93
2019-02-20T07:06:45.999Z,24.40
2019-02-20T07:10:21.784Z,26.73
2019-02-20T07:13:33.200Z,25.07
2019-02-20T07:16:50.166Z,24.57
2019-02-20T07:19:29.631Z,25.17
2019-02-20T07:22:25.937Z,23.10
2019-02-20T07:25:40.027Z,24.27
2019-02-20T07:28:46.377Z,23.37
2019-02-20T07:31:17.193Z,28.83
2019-02-20T07:33:48.111Z,26.63
2019-02-20T07:36:18.736Z,29.17
2019-02-20T07:38:49.473Z,24.97
2019-02-20T07:41:19.863Z,23.20
2019-02-20T07:43:50.244Z,29.10
2019-02-20T07:46:21.310Z,22.73
2019-02-20T07:48:54.248Z,27.33
2019-02-20T07:51:28.186Z,24.60
2019-02-20T07:53:58.940Z,25.27
2019-02-20T07:56:29.627Z,25.93
2019-02-20T07:59:00.128Z,26.87
2019-02-20T08:01:30.951Z,23.23
2019-02-20T08:04:01.400Z,25.03
2019-02-20T08:06:32.531Z,25.47
2019-02-20T08:09:03.160Z,22.37
2019-02-20T08:11:33.597Z,25.20
2019-02-20T08:14:04.261Z,26.20
2019-02-20T08:16:36.348Z,28.60
2019-02-20T08:19:07.033Z,22.57
2019-02-20T08:21:40.464Z,26.00
2019-02-20T08:24:10.866Z,26.33
2019-02-20T08:26:41.703Z,23.43
2019-02-20T08:29:12.002Z,21.60
2019-02-20T08:31:43.195Z,22.67
2019-02-20T08:34:13.563Z,23.27
2019-02-20T08:36:44.273Z,22.47
2019-02-20T08:39:15.153Z,21.37
2019-02-20T08:41:45.992Z,18.87
2019-02-20T08:44:18.903Z,17.87
2019-02-20T08:46:49.211Z,18.33
2019-02-20T08:49:19.709Z,17.40
2019-02-20T08:51:53.566Z,19.50
2019-02-20T08:54:23.919Z,18.43
2019-02-20T08:56:54.433Z,17.70
2019-02-20T08:59:25.227Z,18.57
2019-02-20T09:01:56.103Z,20.40
2019-02-20T09:04:26.464Z,18.73
2019-02-20T09:06:57.283Z,17.63
2019-02-20T09:09:27.565Z,17.67
2019-02-20T09:11:58.219Z,19.00
2019-02-20T09:14:28.669Z,21.33
2019-02-20T09:17:00.853Z,20.83
2019-02-20T09:19:31.285Z,19.23
2019-02-20T09:22:02.334Z,16.33
2019-02-20T09:24:33.065Z,18.53
2019-02-20T09:27:05.932Z,17.77
2019-02-20T09:29:36.299Z,15.47
2019-02-20T09:32:09.065Z,15.53
2019-02-20T09:34:39.558Z,13.93
2019-02-20T09:37:13.628Z,15.27
2019-02-20T09:39:44.040Z,18.97
2019-02-20T09:42:16.854Z,15.97
2019-02-20T09:44:48.868Z,17.40
2019-02-20T09:47:20.243Z,18.73
2019-02-20T09:49:50.847Z,16.27
2019-02-20T09:52:21.335Z,15.80
2019-02-20T09:54:51.895Z,14.07
2019-02-20T09:57:22.340Z,16.10
2019-02-20T09:59:56.162Z,13.67
2019-02-20T10:02:26.567Z,16.10
2019-02-20T10:04:57.384Z,13.73
2019-02-20T10:07:28.146Z,12.83
2019-02-20T10:10:04.059Z,12.80
2019-02-20T10:12:34.487Z,12.87
2019-02-20T10:15:05.142Z,13.33
2019-02-20T10:17:35.573Z,12.37
2019-02-20T10:20:07.282Z,12.93
2019-02-20T10:22:37.880Z,12.93
2019-02-20T10:25:08.997Z,13.27
2019-02-20T10:27:39.845Z,14.17
2019-02-20T10:30:13.202Z,13.17
2019-02-20T10:32:43.705Z,13.57
2019-02-20T10:35:14.385Z,12.73
2019-02-20T10:37:45.048Z,15.57
2019-02-20T10:40:15.745Z,12.67
2019-02-20T10:42:46.512Z,11.90
2019-02-20T10:45:16.952Z,10.67
2019-02-20T10:47:49.985Z,9.43
2019-02-20T10:50:20.347Z,10.77
2019-02-20T10:52:51.129Z,11.60
2019-02-20T10:55:22.087Z,10.83
2019-02-20T10:57:52.624Z,9.40
2019-02-20T11:00:25.245Z,7.87
2019-02-20T11:02:55.778Z,11.43
2019-02-20T11:05:26.631Z,11.27
2019-02-20T11:07:56.994Z,12.33
2019-02-20T11:10:27.749Z,10.77
2019-02-20T11:12:58.235Z,11.10
2019-02-20T11:15:30.720Z,10.70
2019-02-20T11:18:01.039Z,10.83
2019-02-20T11:20:31.464Z,10.83
2019-02-20T11:23:01.842Z,8.13
2019-02-20T11:25:32.362Z,7.63
2019-02-20T11:28:02.732Z,10.20
2019-02-20T11:30:33.078Z,8.87
2019-02-20T11:33:04.067Z,7.93
2019-02-20T11:35:34.891Z,8.43
2019-02-20T11:38:05.321Z,10.30
2019-02-20T11:40:35.642Z,9.40
2019-02-20T11:43:06.324Z,9.13
2019-02-20T11:45:36.796Z,8.17
2019-02-20T11:48:07.681Z,8.90
2019-02-20T11:50:38.030Z,7.27
2019-02-20T11:53:08.882Z,7.90
2019-02-20T11:55:40.188Z,8.03
2019-02-20T11:58:10.786Z,7.90
2019-02-20T12:00:43.216Z,7.23
2019-02-20T12:03:13.630Z,6.10
2019-02-20T12:05:44.244Z,6.73
2019-02-20T12:08:15.028Z,8.80
2019-02-20T12:10:46.199Z,7.43
2019-02-20T12:13:16.553Z,10.17
2019-02-20T12:15:47.275Z,6.87
2019-02-20T12:18:18.830Z,7.40
2019-02-20T12:20:50.202Z,7.67
2019-02-20T12:23:22.863Z,8.77
2019-02-20T12:25:54.382Z,8.37
2019-02-20T12:28:27.358Z,8.10
2019-02-20T12:30:58.210Z,6.17
2019-02-20T12:33:28.673Z,7.83
2019-02-20T12:35:59.143Z,8.63
2019-02-20T12:38:29.508Z,5.93
2019-02-20T12:41:02.534Z,7.10
2019-02-20T12:43:32.957Z,5.37
2019-02-20T12:46:03.383Z,6.50
2019-02-20T12:48:33.793Z,7.30
2019-02-20T12:51:04.295Z,6.00
2019-02-20T12:53:34.905Z,8.90
2019-02-20T12:56:09.932Z,6.00
2019-02-20T12:58:38.383Z,5.57
2019-02-20T13:01:09.562Z,6.40
2019-02-20T13:03:40.137Z,9.57
2019-02-20T13:06:12.607Z,9.03
2019-02-20T13:08:46.013Z,7.60
2019-02-20T13:11:16.991Z,8.23
2019-02-20T13:13:49.052Z,11.83
2019-02-20T13:16:20.118Z,6.20
2019-02-20T13:18:50.527Z,8.57
2019-02-20T13:21:26.811Z,8.60
2019-02-20T13:23:57.127Z,7.73
2019-02-20T13:26:28.217Z,8.27
2019-02-20T13:28:58.853Z,7.80
2019-02-20T13:31:29.177Z,6.97
2019-02-20T13:34:00.166Z,7.97
2019-02-20T13:36:30.565Z,7.97
2019-02-20T13:39:01.058Z,10.80
2019-02-20T13:41:31.388Z,8.27
2019-02-20T13:44:04.849Z,7.40
2019-02-20T13:46:35.250Z,7.43
2019-02-20T13:49:05.758Z,6.90
2019-02-20T13:51:38.551Z,8.37
2019-02-20T13:54:09.848Z,7.17
2019-02-20T13:56:40.966Z,6.53
2019-02-20T13:59:11.436Z,5.50
2019-02-20T14:01:42.035Z,6.90
2019-02-20T14:04:13.147Z,5.80
2019-02-20T14:06:43.813Z,6.07
2019-02-20T14:09:16.037Z,4.63
2019-02-20T14:11:46.736Z,3.77
2019-02-20T14:14:17.380Z,5.70
2019-02-20T14:16:47.932Z,5.40
2019-02-20T14:19:18.640Z,6.43
2019-02-20T14:21:50.224Z,4.27
2019-02-20T14:24:20.694Z,4.57
2019-02-20T14:26:51.411Z,5.13
2019-02-20T14:29:22.146Z,6.00
2019-02-20T14:31:53.334Z,3.80
2019-02-20T14:34:23.827Z,2.87
2019-02-20T14:36:54.241Z,3.13
2019-02-20T14:39:24.648Z,6.00
2019-02-20T14:41:57.075Z,5.77
2019-02-20T14:44:30.335Z,3.03
2019-02-20T14:47:00.945Z,2.93
2019-02-20T14:49:31.720Z,1.97
2019-02-20T14:52:02.010Z,3.17
2019-02-20T14:54:35.096Z,4.33
2019-02-20T14:57:05.448Z,3.63
2019-02-20T14:59:37.775Z,3.53
2019-02-20T15:02:09.438Z,3.67
2019-02-20T15:04:39.922Z,3.60
2019-02-20T15:07:10.358Z,4.10
2019-02-20T15:09:41.140Z,4.83
2019-02-20T15:12:11.720Z,8.27
2019-02-20T15:14:45.340Z,3.17
2019-02-20T15:17:16.520Z,4.63
2019-02-20T15:19:47.261Z,4.97
2019-02-20T15:22:18.162Z,3.10
2019-02-20T15:24:48.622Z,6.63
2019-02-20T15:27:19.294Z,5.87
2019-02-20T15:29:50.983Z,7.03
2019-02-20T15:32:21.653Z,5.43
2019-02-20T15:34:54.934Z,4.93
2019-02-20T15:37:25.745Z,5.00
2019-02-20T15:39:56.624Z,5.80
2019-02-20T15:42:27.446Z,7.10
2019-02-20T15:44:57.958Z,7.23
2019-02-20T15:47:29.035Z,6.07
2019-02-20T15:50:00.700Z,7.67
2019-02-20T15:52:31.557Z,8.17
2019-02-20T15:55:01.990Z,9.47
2019-02-20T15:57:38.073Z,8.27
2019-02-20T16:00:04.870Z,8.40
2019-02-20T16:02:35.252Z,8.77
2019-02-20T16:05:09.062Z,8.67
2019-02-20T16:07:39.722Z,10.63
2019-02-20T16:10:10.503Z,13.27
2019-02-20T16:12:42.868Z,11.03
2019-02-20T16:15:14.690Z,11.23
2019-02-20T16:17:45.201Z,14.50
2019-02-20T16:20:16.022Z,12.77
2019-02-20T16:22:47.986Z,12.73
2019-02-20T16:25:19.381Z,15.67
2019-02-20T16:27:49.756Z,14.73
2019-02-20T16:30:20.463Z,13.97
2019-02-20T16:32:51.321Z,13.53
2019-02-20T16:35:22.263Z,17.50
2019-02-20T16:37:52.596Z,14.03
2019-02-20T16:40:23.630Z,13.27
2019-02-20T16:42:54.426Z,14.10
2019-02-20T16:45:25.217Z,14.13
2019-02-20T16:47:57.343Z,12.83
2019-02-20T16:50:27.900Z,14.30
2019-02-20T16:52:58.307Z,12.47
2019-02-20T16:55:28.837Z,14.23
2019-02-20T16:57:59.312Z,12.53
2019-02-20T17:00:30.606Z,12.17
2019-02-20T17:03:02.950Z,13.90
2019-02-20T17:05:33.758Z,14.00
2019-02-20T17:08:04.230Z,14.33
2019-02-20T17:10:34.590Z,13.27
2019-02-20T17:13:11.172Z,17.63
2019-02-20T17:15:41.874Z,18.27
2019-02-20T17:18:21.355Z,17.67
2019-02-20T17:20:53.714Z,17.07
2019-02-20T17:23:24.005Z,17.37
2019-02-20T17:25:56.222Z,14.47
2019-02-20T17:28:26.604Z,17.10
2019-02-20T17:30:57.009Z,14.67
2019-02-20T17:33:27.220Z,12.30
2019-02-20T17:35:57.502Z,13.87
2019-02-20T17:38:27.881Z,14.97
2019-02-20T17:40:58.953Z,14.53
2019-02-20T17:43:29.247Z,13.10
2019-02-20T17:45:59.545Z,16.23
2019-02-20T17:48:30.087Z,15.13
2019-02-20T17:51:00.579Z,17.07
2019-02-20T17:53:31.782Z,15.90
2019-02-20T17:56:02.025Z,17.87
2019-02-20T17:58:32.611Z,14.93
2019-02-20T18:01:04.794Z,14.70
2019-02-20T18:03:35.356Z,17.90
2019-02-20T18:06:05.647Z,15.63
2019-02-20T18:08:35.829Z,15.67
2019-02-20T18:11:07.493Z,18.10
2019-02-20T18:13:37.798Z,15.70
2019-02-20T18:16:08.396Z,16.00
2019-02-20T18:18:38.936Z,14.37
2019-02-20T18:21:09.093Z,19.67
2019-02-20T18:23:39.543Z,14.20
2019-02-20T18:26:09.836Z,19.33
2019-02-20T18:28:40.070Z,13.67
2019-02-20T18:31:10.550Z,12.33
2019-02-20T18:33:40.889Z,14.03
2019-02-20T18:36:11.694Z,13.77
2019-02-20T18:38:42.271Z,16.80
2019-02-20T18:41:14.527Z,13.07
2019-02-20T18:43:44.361Z,16.03
2019-02-20T18:46:14.916Z,14.43
2019-02-20T18:48:45.715Z,15.03
2019-02-20T18:51:16.318Z,16.00
2019-02-20T18:53:46.509Z,15.23
2019-02-20T18:56:16.723Z,15.33
2019-02-20T18:58:47.368Z,14.93
2019-02-20T19:01:17.695Z,15.90
2019-02-20T19:03:48.327Z,14.40
2019-02-20T19:06:18.560Z,13.93
2019-02-20T19:08:51.537Z,15.50
2019-02-20T19:11:29.013Z,13.03
2019-02-20T19:14:46.044Z,12.60
2019-02-20T19:18:18.503Z,14.20
2019-02-20T19:21:35.047Z,16.03
2019-02-20T19:24:30.263Z,14.77
2019-02-20T19:27:19.807Z,13.07
2019-02-20T19:30:32.602Z,14.47
2019-02-20T19:33:43.817Z,13.37
2019-02-20T19:36:48.104Z,15.73
2019-02-20T19:39:44.114Z,14.07
2019-02-20T19:42:46.062Z,13.90
2019-02-20T19:46:00.354Z,15.70
2019-02-20T19:49:10.703Z,17.07
2019-02-20T19:52:12.045Z,15.40
2019-02-20T19:54:54.887Z,18.13
2019-02-20T19:57:55.156Z,17.53
2019-02-20T20:01:05.291Z,16.27
2019-02-20T20:04:15.624Z,18.80
2019-02-20T20:07:08.092Z,16.80
2019-02-20T20:10:04.798Z,17.93
2019-02-20T20:13:09.322Z,19.30
2019-02-20T20:16:11.528Z,17.70
2019-02-20T20:19:31.193Z,18.23
2019-02-20T20:22:40.188Z,18.67
2019-02-20T20:25:39.310Z,16.27
2019-02-20T20:28:49.032Z,16.37
2019-02-20T20:31:48.365Z,17.47
2019-02-20T20:35:11.966Z,18.20
2019-02-20T20:38:04.303Z,16.87
2019-02-20T20:41:11.202Z,19.17
2019-02-20T20:44:13.056Z,18.77
2019-02-20T20:47:26.287Z,18.10
2019-02-20T20:50:27.604Z,16.03
2019-02-20T20:53:47.830Z,18.33
2019-02-20T20:57:01.899Z,17.53
2019-02-20T21:00:03.546Z,18.43
2019-02-20T21:02:40.868Z,17.60
2019-02-20T21:05:58.404Z,17.13
2019-02-20T21:08:41.858Z,17.50
2019-02-20T21:11:40.740Z,18.17
2019-02-20T21:14:23.628Z,18.27
2019-02-20T21:17:26.475Z,18.83
2019-02-20T21:20:40.385Z,17.43
2019-02-20T21:23:56.561Z,17.00
2019-02-20T21:27:11.270Z,20.80
2019-02-20T21:30:01.127Z,19.77
2019-02-20T21:33:24.034Z,20.33
2019-02-20T21:36:21.781Z,17.60
2019-02-20T21:39:29.520Z,20.77
2019-02-20T21:42:26.383Z,20.77
2019-02-20T21:45:37.654Z,17.20
2019-02-20T21:48:44.682Z,18.83
2019-02-20T21:52:02.253Z,18.40
2019-02-20T21:55:17.106Z,17.87
2019-02-20T21:58:33.133Z,17.87
2019-02-20T22:01:25.035Z,20.47
2019-02-20T22:04:13.057Z,20.83
2019-02-20T22:07:11.505Z,18.03
2019-02-20T22:10:38.975Z,20.87
2019-02-20T22:13:47.396Z,21.43
2019-02-20T22:16:35.088Z,17.33
2019-02-20T22:19:29.757Z,20.50
2019-02-20T22:22:50.547Z,18.33
2019-02-20T22:25:44.863Z,17.73
2019-02-20T22:28:56.018Z,18.13
2019-02-20T22:32:05.105Z,15.97
2019-02-20T22:35:10.874Z,20.00
2019-02-20T22:38:31.540Z,19.73
2019-02-20T22:41:20.288Z,19.10
2019-02-20T22:44:28.673Z,17.73
2019-02-20T22:47:54.609Z,19.53
2019-02-20T22:51:00.862Z,16.67
2019-02-20T22:54:18.005Z,20.83
2019-02-20T22:57:30.680Z,19.63
2019-02-20T23:00:50.044Z,16.23
2019-02-20T23:03:49.244Z,19.80
2019-02-20T23:07:02.474Z,19.80
2019-02-20T23:10:13.435Z,21.47
2019-02-20T23:13:30.259Z,24.70
2019-02-20T23:16:00.590Z,21.03
2019-02-20T23:18:31.208Z,22.77
2019-02-20T23:21:01.468Z,21.97
2019-02-20T23:23:31.726Z,20.20
2019-02-20T23:26:02.257Z,22.87
2019-02-20T23:28:32.725Z,22.50
2019-02-20T23:31:03.882Z,22.97
2019-02-20T23:33:34.254Z,21.73
2019-02-20T23:36:04.767Z,24.20
2019-02-20T23:38:34.983Z,21.00
2019-02-20T23:41:05.232Z,23.63
2019-02-20T23:43:35.417Z,22.83
2019-02-20T23:46:05.676Z,24.37
2019-02-20T23:48:35.889Z,23.97
2019-02-20T23:51:06.476Z,25.13
2019-02-20T23:53:36.687Z,22.17
2019-02-20T23:56:07.216Z,22.70
2019-02-20T23:58:38.692Z,24.20
